x

Western Caribbean - 195 Nm Wsw Of Negril Jamiaca (42057) Wave Buoy

3:50 - Thu 5th May 2016 All times are UTC.

  • Sig Wave height 2.6ft
  • Swell Direction
  • Peak Period 8s
  • Average Period 5s
  • Wind
    13mph, 16mph gusts
  • Sea Temp 85°f
  • Luft Temp 84°f
  • Sea Pressure 1011.2mb

More Historic Weather Station data

Upgrade to MSW Pro to gain access to the past 30 days of data for over 8000 Wavebouys and Weather Stations around the globe.

Join Pro

Comparision Forecast

View Surf forecast
   
Do 05/05 3:50 2.5ft 8s 5s 13 16 mph 1011.2mb 85f 84f
2:50 3ft 8s 5s 11 13 mph 1010.9mb 84f 84f
1:50 3ft 7s 5s 13 16 mph 1010.5mb 84f 84f
12:50 3ft 8s 5s 11 13 mph 1010.1mb 84f 84f
11:50 3ft 8s 5s 11 16 mph 1009.7mb 84f 83f
10:50 3ft 8s 5s 11 13 mph 1009.4mb 84f 83f
9:50 3ft 8s 5s 11 13 mph 1009.1mb 84f 83f
8:50 3.5ft 8s 5s 11 13 mph 1009mb 84f 83f
7:50 3.5ft 8s 5s 11 16 mph 1009mb 84f 83f
6:50 3.5ft 8s 5s 13 16 mph 1009.6mb 84f 83f
5:50 3.5ft 8s 5s 9 11 mph 1010.9mb 84f 83f
4:50 3ft 8s 5s 9 11 mph 1011.6mb 84f 83f
3:50 3.5ft 7s 5s 9 11 mph 1011.5mb 84f 83f
2:50 3.5ft 8s 5s 9 11 mph 1011.2mb 85f 84f
1:50 3ft 8s 5s 9
mph
1011.1mb 85f 84f
12:50 3ft 8s 5s 9 16 mph 1009.8mb 85f 83f
Mi 05/04 11:50 3ft 8s 5s 9 13 mph 1008.8mb 85f 84f
10:50 3ft 9s 5s 11 13 mph 1008.6mb 85f 84f
9:50 3.5ft 9s 5s 11 16 mph 1008.8mb 85f 84f
8:50 3.5ft 7s 5s 13 16 mph 1008.9mb 85f 84f
7:50 3.5ft 9s 5s 13 16 mph 1008.9mb 85f 84f
6:50 3.5ft 6s 5s 13 18 mph 1009.9mb 85f 83f
5:50 3.5ft 9s 5s 13 16 mph 1010.9mb 85f 83f
4:50 3.5ft 8s 5s 16 18 mph 1011.7mb 84f 83f
3:50 4ft 9s 5s 16 18 mph 1012.1mb 84f 82f
2:50 4ft 9s 5s 18 20 mph 1012.2mb 84f 82f
1:50 4.5ft 9s 5s 16 18 mph 1012.1mb 84f 82f
12:50 4ft 9s 5s 16 18 mph 1012.1mb 84f 81f
11:50 4.5ft 9s 5s 18 20 mph 1012mb 84f 81f
10:50 4ft 8s 5s 11 16 mph 1011.4mb 84f 82f
9:50 4ft 9s 5s 11 13 mph 1011.1mb 84f 82f
8:50 3.5ft 7s 5s 11 13 mph 1010.8mb 84f 83f
7:50 3.5ft 6s 5s 16 20 mph 1010.9mb 84f 82f
6:50 3.5ft 6s 5s 13 16 mph 1011.7mb 84f 83f
5:50 3.5ft 7s 5s 13
mph
1012mb 84f 83f
4:50 3.5ft 6s 5s 11 13 mph 1012.5mb 84f 83f
3:50 4ft 7s 5s 13 16 mph 1012.5mb 84f 83f
2:50 3.5ft 6s 5s 13
mph
1012.4mb 84f 83f
1:50 4ft 9s 5s 13 16 mph 1012mb 84f 83f
12:50 4ft 6s 5s 13 16 mph 1011.5mb 84f 83f
Di 05/03 11:50 4ft 7s 5s 16 18 mph 1011.1mb 85f 83f
10:50 4ft 8s 5s 13 16 mph 1010.9mb 85f 84f
9:50 4.5ft 7s 5s 13 16 mph 1010.6mb 85f 84f
8:50 4.5ft 8s 5s 13 16 mph 1010.5mb 85f 84f
7:50 4.5ft 8s 5s 13 18 mph 1011mb 85f 84f
6:50 4.5ft 6s 5s 16 18 mph 1011.5mb 85f 84f
5:50 4.5ft 6s 5s 13 18 mph 1012.1mb 84f 83f
4:50 4.5ft 7s 5s 13 16 mph 1012.7mb 84f 83f
3:50 5ft 6s 5s 13 16 mph 1013.2mb 84f 83f
2:50 4.5ft 8s 5s 13 18 mph 1013.2mb 84f 83f
12:50 5ft 6s 5s 16 20 mph 1012.5mb 84f 83f
11:50 5ft 8s 5s 13 18 mph 1011.8mb 84f 83f
10:50 5.5ft 6s 5s 16 20 mph 1011.3mb 84f 83f
9:50 5ft 6s 5s 16 18 mph 1010.9mb 84f 83f
8:50 5ft 7s 5s 18 20 mph 1010.6mb 84f 83f
7:50 5ft 6s 5s 16 22 mph 1011mb 84f 82f
6:50 5ft 6s 5s 18 20 mph 1011.2mb 84f 83f
5:50 5ft 8s 5s 20 25 mph 1011.8mb 84f 83f
4:50 5ft 7s 5s 20 25 mph 1012.5mb 84f 84f
3:50 4.5ft 6s 5s 20 22 mph 1012.5mb 84f 83f
2:50 4.5ft 5s 5s 18 22 mph 1012.3mb 84f 84f
1:50 4.5ft 6s 5s 18 20 mph 1011.7mb 84f 83f
12:50 4.5ft 6s 5s 18 22 mph 1011.1mb 84f 84f
Mo 05/02 11:50 4ft 6s 5s 18 20 mph 1010.2mb 84f 84f
10:50 4ft 6s 5s 13 16 mph 1010.3mb 84f 83f
9:50 4.5ft 5s 5s 16 18 mph 1010.2mb 85f 84f
8:50 4ft 5s 5s 18 22 mph 1010.3mb 85f 84f
7:50 4ft 6s 5s 16 20 mph 1010.5mb 85f 84f
6:50 3.5ft 6s 4s 16 18 mph 1011.3mb 84f 83f
5:50 4ft 6s 4s 16 20 mph 1012mb 84f 83f
4:50 3.5ft 6s 4s 16 18 mph 1012.7mb 84f 84f
3:50 4ft 6s 4s 16 18 mph 1012.9mb 84f 84f
2:50 4ft 6s 5s 16 18 mph 1012.8mb 84f 84f
1:50 4ft 6s 5s 16 18 mph 1012.3mb 84f 84f
12:50 4ft 6s 5s 13 18 mph 1011.9mb 84f 83f
11:50 4ft 5s 5s 16 20 mph 1011.2mb 84f 83f
10:50 4ft 6s 5s 16 20 mph 1010.2mb 84f 83f
9:50 3.5ft 5s 4s 18 20 mph 1009.8mb 84f 83f
8:50 4ft 6s 5s 16 20 mph 1009.8mb 84f 83f
7:50 4ft 6s 4s 18 22 mph 1010mb 84f 83f
6:50 3.5ft 5s 4s 18 20 mph 1010.3mb 84f 83f
5:50 3.5ft 6s 5s 18 20 mph 1010.8mb 84f 83f
4:50 4ft 6s 4s 18 22 mph 1011.3mb 84f 81f
3:50 4ft 6s 5s 16 20 mph 1011.6mb 84f 83f
2:50 4ft 5s 4s 16 20 mph 1011.5mb 84f 83f
1:50 4ft 6s 5s 18 22 mph 1010.7mb 84f 83f
12:50 4ft 6s 5s 18 20 mph 1009.9mb 84f 83f
So 05/01 11:50 3.5ft 6s 5s 16 18 mph 1009.4mb 84f 83f
10:50 3.5ft 6s 4s 13 16 mph 1008.9mb 84f 83f
9:50 3.5ft 6s 4s 16 18 mph 1008.6mb 84f 83f
8:50 4ft 5s 4s 16 18 mph 1008.8mb 84f 83f
7:50 4ft 5s 4s 18 20 mph 1009.7mb 84f 83f
6:50 3.5ft 5s 4s 18 22 mph 1010.2mb 84f 83f
5:50 3.5ft 5s 4s 18 20 mph 1010.9mb 84f 83f